sensor_id;sensor_type;location;lat;lon;timestamp;temperature;humidity
50738;DHT22;36703;48.154;17.126;2023-12-28T00:00:03;11.10;52.30
50738;DHT22;36703;48.154;17.126;2023-12-28T00:04:05;11.10;52.50
50738;DHT22;36703;48.154;17.126;2023-12-28T00:08:07;11.10;52.60
50738;DHT22;36703;48.154;17.126;2023-12-28T00:12:08;11.20;52.70
50738;DHT22;36703;48.154;17.126;2023-12-28T00:16:10;11.10;52.50
50738;DHT22;36703;48.154;17.126;2023-12-28T00:20:11;11.10;52.50
50738;DHT22;36703;48.154;17.126;2023-12-28T00:24:15;11.10;52.70
50738;DHT22;36703;48.154;17.126;2023-12-28T00:28:17;11.10;52.70
50738;DHT22;36703;48.154;17.126;2023-12-28T00:32:18;11.10;52.80
50738;DHT22;36703;48.154;17.126;2023-12-28T00:36:20;11.00;52.90
50738;DHT22;36703;48.154;17.126;2023-12-28T00:40:21;11.00;53.00
50738;DHT22;36703;48.154;17.126;2023-12-28T00:44:24;11.00;53.10
50738;DHT22;36703;48.154;17.126;2023-12-28T00:48:25;10.90;53.10
50738;DHT22;36703;48.154;17.126;2023-12-28T00:52:27;10.90;53.30
50738;DHT22;36703;48.154;17.126;2023-12-28T00:56:28;11.00;53.20
50738;DHT22;36703;48.154;17.126;2023-12-28T01:00:30;11.10;53.30
50738;DHT22;36703;48.154;17.126;2023-12-28T01:04:31;11.10;53.30
50738;DHT22;36703;48.154;17.126;2023-12-28T01:08:33;11.10;53.30
50738;DHT22;36703;48.154;17.126;2023-12-28T01:12:35;11.00;53.20
50738;DHT22;36703;48.154;17.126;2023-12-28T01:16:36;10.90;53.40
50738;DHT22;36703;48.154;17.126;2023-12-28T01:20:40;10.80;53.50
50738;DHT22;36703;48.154;17.126;2023-12-28T01:24:41;10.90;53.60
50738;DHT22;36703;48.154;17.126;2023-12-28T01:28:43;10.80;53.60
50738;DHT22;36703;48.154;17.126;2023-12-28T01:32:44;10.80;53.50
50738;DHT22;36703;48.154;17.126;2023-12-28T01:36:46;10.80;53.70
50738;DHT22;36703;48.154;17.126;2023-12-28T01:40:47;10.80;53.60
50738;DHT22;36703;48.154;17.126;2023-12-28T01:44:50;10.70;53.70
50738;DHT22;36703;48.154;17.126;2023-12-28T01:48:51;10.70;53.80
50738;DHT22;36703;48.154;17.126;2023-12-28T01:52:55;10.70;53.80
50738;DHT22;36703;48.154;17.126;2023-12-28T01:56:57;10.70;53.80
50738;DHT22;36703;48.154;17.126;2023-12-28T02:01:01;10.60;53.90
50738;DHT22;36703;48.154;17.126;2023-12-28T02:05:03;10.60;54.00
50738;DHT22;36703;48.154;17.126;2023-12-28T02:09:05;10.60;54.10
50738;DHT22;36703;48.154;17.126;2023-12-28T02:13:06;10.60;54.20
50738;DHT22;36703;48.154;17.126;2023-12-28T02:21:31;10.50;54.00
50738;DHT22;36703;48.154;17.126;2023-12-28T02:25:34;10.40;54.10
50738;DHT22;36703;48.154;17.126;2023-12-28T02:29:35;10.40;54.30
50738;DHT22;36703;48.154;17.126;2023-12-28T02:33:56;10.40;54.40
50738;DHT22;36703;48.154;17.126;2023-12-28T02:38:06;10.40;54.30
50738;DHT22;36703;48.154;17.126;2023-12-28T02:42:10;10.50;54.30
50738;DHT22;36703;48.154;17.126;2023-12-28T02:46:12;10.50;54.30
50738;DHT22;36703;48.154;17.126;2023-12-28T02:50:13;10.40;54.30
50738;DHT22;36703;48.154;17.126;2023-12-28T02:54:15;10.40;54.30
50738;DHT22;36703;48.154;17.126;2023-12-28T02:58:16;10.40;54.40
50738;DHT22;36703;48.154;17.126;2023-12-28T03:02:18;10.30;54.30
50738;DHT22;36703;48.154;17.126;2023-12-28T03:06:21;10.30;54.40
50738;DHT22;36703;48.154;17.126;2023-12-28T03:10:23;10.30;54.50
50738;DHT22;36703;48.154;17.126;2023-12-28T03:14:24;10.20;54.60
50738;DHT22;36703;48.154;17.126;2023-12-28T03:18:26;10.20;54.50
50738;DHT22;36703;48.154;17.126;2023-12-28T03:22:27;10.20;54.50
50738;DHT22;36703;48.154;17.126;2023-12-28T03:26:29;10.20;54.40
50738;DHT22;36703;48.154;17.126;2023-12-28T03:30:31;10.20;54.50
50738;DHT22;36703;48.154;17.126;2023-12-28T03:34:32;10.20;54.60
50738;DHT22;36703;48.154;17.126;2023-12-28T03:38:35;10.10;54.60
50738;DHT22;36703;48.154;17.126;2023-12-28T03:42:36;10.00;54.50
50738;DHT22;36703;48.154;17.126;2023-12-28T03:46:39;10.10;54.60
50738;DHT22;36703;48.154;17.126;2023-12-28T03:50:41;10.00;54.60
50738;DHT22;36703;48.154;17.126;2023-12-28T03:54:42;10.00;54.60
50738;DHT22;36703;48.154;17.126;2023-12-28T03:58:44;10.00;54.70
50738;DHT22;36703;48.154;17.126;2023-12-28T04:02:45;10.00;54.80
50738;DHT22;36703;48.154;17.126;2023-12-28T04:06:46;10.00;54.80
50738;DHT22;36703;48.154;17.126;2023-12-28T04:10:48;10.00;54.80
50738;DHT22;36703;48.154;17.126;2023-12-28T04:14:49;9.90;54.70
50738;DHT22;36703;48.154;17.126;2023-12-28T04:18:51;9.90;54.80
50738;DHT22;36703;48.154;17.126;2023-12-28T04:22:53;10.00;54.80
50738;DHT22;36703;48.154;17.126;2023-12-28T04:26:54;9.80;54.90
50738;DHT22;36703;48.154;17.126;2023-12-28T04:30:56;9.80;55.00
50738;DHT22;36703;48.154;17.126;2023-12-28T04:34:58;9.80;55.10
50738;DHT22;36703;48.154;17.126;2023-12-28T04:38:59;9.90;55.30
50738;DHT22;36703;48.154;17.126;2023-12-28T04:43:00;9.80;55.20
50738;DHT22;36703;48.154;17.126;2023-12-28T04:47:02;9.80;55.20
50738;DHT22;36703;48.154;17.126;2023-12-28T04:51:05;9.80;55.10
50738;DHT22;36703;48.154;17.126;2023-12-28T04:55:06;9.80;55.10
50738;DHT22;36703;48.154;17.126;2023-12-28T04:59:08;9.80;55.10
50738;DHT22;36703;48.154;17.126;2023-12-28T05:03:10;9.80;55.00
50738;DHT22;36703;48.154;17.126;2023-12-28T05:07:11;9.80;55.00
50738;DHT22;36703;48.154;17.126;2023-12-28T05:11:13;9.80;55.00
50738;DHT22;36703;48.154;17.126;2023-12-28T05:15:14;9.70;55.00
50738;DHT22;36703;48.154;17.126;2023-12-28T05:19:17;9.70;55.10
50738;DHT22;36703;48.154;17.126;2023-12-28T05:23:18;9.70;55.10
50738;DHT22;36703;48.154;17.126;2023-12-28T05:27:20;9.60;55.00
50738;DHT22;36703;48.154;17.126;2023-12-28T05:31:21;9.70;55.10
50738;DHT22;36703;48.154;17.126;2023-12-28T05:35:23;9.70;55.00
50738;DHT22;36703;48.154;17.126;2023-12-28T05:39:24;9.70;55.10
50738;DHT22;36703;48.154;17.126;2023-12-28T05:43:26;9.80;55.20
50738;DHT22;36703;48.154;17.126;2023-12-28T05:47:27;9.70;55.10
50738;DHT22;36703;48.154;17.126;2023-12-28T05:51:29;9.70;55.00
50738;DHT22;36703;48.154;17.126;2023-12-28T05:55:31;9.70;55.10
50738;DHT22;36703;48.154;17.126;2023-12-28T05:59:32;9.70;55.00
50738;DHT22;36703;48.154;17.126;2023-12-28T06:03:33;9.80;55.00
50738;DHT22;36703;48.154;17.126;2023-12-28T06:07:35;9.80;54.90
50738;DHT22;36703;48.154;17.126;2023-12-28T06:11:37;9.70;54.90
50738;DHT22;36703;48.154;17.126;2023-12-28T06:15:38;9.70;54.90
50738;DHT22;36703;48.154;17.126;2023-12-28T06:19:39;9.70;55.00
50738;DHT22;36703;48.154;17.126;2023-12-28T06:23:41;9.70;55.00
50738;DHT22;36703;48.154;17.126;2023-12-28T06:27:42;9.90;55.10
50738;DHT22;36703;48.154;17.126;2023-12-28T06:31:44;9.70;55.00
50738;DHT22;36703;48.154;17.126;2023-12-28T06:35:45;9.70;54.90
50738;DHT22;36703;48.154;17.126;2023-12-28T06:39:47;9.70;55.00
50738;DHT22;36703;48.154;17.126;2023-12-28T06:43:48;9.90;55.10
50738;DHT22;36703;48.154;17.126;2023-12-28T06:47:50;9.70;55.00
50738;DHT22;36703;48.154;17.126;2023-12-28T06:51:52;9.70;55.10
50738;DHT22;36703;48.154;17.126;2023-12-28T06:55:53;9.70;55.10
50738;DHT22;36703;48.154;17.126;2023-12-28T06:59:55;9.70;55.00
50738;DHT22;36703;48.154;17.126;2023-12-28T07:03:57;9.70;55.10
50738;DHT22;36703;48.154;17.126;2023-12-28T07:08:00;9.70;55.10
50738;DHT22;36703;48.154;17.126;2023-12-28T07:12:02;9.70;55.20
50738;DHT22;36703;48.154;17.126;2023-12-28T07:16:04;9.80;55.20
50738;DHT22;36703;48.154;17.126;2023-12-28T07:20:06;9.70;55.20
50738;DHT22;36703;48.154;17.126;2023-12-28T07:24:10;9.80;55.30
50738;DHT22;36703;48.154;17.126;2023-12-28T07:28:11;9.90;55.30
50738;DHT22;36703;48.154;17.126;2023-12-28T07:32:13;9.80;55.30
50738;DHT22;36703;48.154;17.126;2023-12-28T07:36:15;9.80;55.30
50738;DHT22;36703;48.154;17.126;2023-12-28T07:40:16;9.80;55.50
50738;DHT22;36703;48.154;17.126;2023-12-28T07:44:18;9.80;55.50
50738;DHT22;36703;48.154;17.126;2023-12-28T07:48:19;9.90;55.40
50738;DHT22;36703;48.154;17.126;2023-12-28T07:52:21;9.90;55.40
50738;DHT22;36703;48.154;17.126;2023-12-28T07:56:22;10.00;55.40
50738;DHT22;36703;48.154;17.126;2023-12-28T08:00:24;9.60;55.10
50738;DHT22;36703;48.154;17.126;2023-12-28T08:04:25;10.20;55.30
50738;DHT22;36703;48.154;17.126;2023-12-28T08:08:27;10.30;55.30
50738;DHT22;36703;48.154;17.126;2023-12-28T08:12:28;10.50;55.20
50738;DHT22;36703;48.154;17.126;2023-12-28T08:16:30;10.60;55.10
50738;DHT22;36703;48.154;17.126;2023-12-28T08:20:31;10.70;54.80
50738;DHT22;36703;48.154;17.126;2023-12-28T08:24:33;11.00;55.00
50738;DHT22;36703;48.154;17.126;2023-12-28T08:28:34;11.20;54.50
50738;DHT22;36703;48.154;17.126;2023-12-28T08:32:36;11.30;54.40
50738;DHT22;36703;48.154;17.126;2023-12-28T08:36:37;11.40;54.00
50738;DHT22;36703;48.154;17.126;2023-12-28T08:40:42;11.60;54.00
50738;DHT22;36703;48.154;17.126;2023-12-28T08:44:45;11.80;53.70
50738;DHT22;36703;48.154;17.126;2023-12-28T08:48:47;11.80;53.30
50738;DHT22;36703;48.154;17.126;2023-12-28T08:52:48;11.90;53.20
50738;DHT22;36703;48.154;17.126;2023-12-28T08:56:50;11.90;52.90
50738;DHT22;36703;48.154;17.126;2023-12-28T09:00:51;11.90;52.90
50738;DHT22;36703;48.154;17.126;2023-12-28T09:04:53;12.20;52.90
50738;DHT22;36703;48.154;17.126;2023-12-28T09:08:54;12.30;52.50
50738;DHT22;36703;48.154;17.126;2023-12-28T09:12:56;12.50;52.30
50738;DHT22;36703;48.154;17.126;2023-12-28T09:16:58;12.60;52.00
50738;DHT22;36703;48.154;17.126;2023-12-28T09:20:59;12.90;51.80
50738;DHT22;36703;48.154;17.126;2023-12-28T09:25:01;13.00;51.50
50738;DHT22;36703;48.154;17.126;2023-12-28T09:29:02;13.20;51.20
50738;DHT22;36703;48.154;17.126;2023-12-28T09:33:04;13.40;50.90
50738;DHT22;36703;48.154;17.126;2023-12-28T09:37:05;13.60;50.70
50738;DHT22;36703;48.154;17.126;2023-12-28T09:41:12;13.70;50.10
50738;DHT22;36703;48.154;17.126;2023-12-28T09:45:18;13.70;49.90
50738;DHT22;36703;48.154;17.126;2023-12-28T09:49:21;14.00;49.80
50738;DHT22;36703;48.154;17.126;2023-12-28T09:53:25;14.10;49.60
50738;DHT22;36703;48.154;17.126;2023-12-28T09:57:27;14.40;49.20
50738;DHT22;36703;48.154;17.126;2023-12-28T10:01:28;14.60;48.90
50738;DHT22;36703;48.154;17.126;2023-12-28T10:05:30;14.80;48.50
50738;DHT22;36703;48.154;17.126;2023-12-28T10:09:32;15.00;48.10
50738;DHT22;36703;48.154;17.126;2023-12-28T10:13:33;15.10;47.90
50738;DHT22;36703;48.154;17.126;2023-12-28T10:17:36;15.40;47.70
50738;DHT22;36703;48.154;17.126;2023-12-28T10:21:39;15.60;47.20
50738;DHT22;36703;48.154;17.126;2023-12-28T10:25:42;15.80;46.70
50738;DHT22;36703;48.154;17.126;2023-12-28T10:29:44;16.00;46.40
50738;DHT22;36703;48.154;17.126;2023-12-28T10:33:45;16.10;46.10
50738;DHT22;36703;48.154;17.126;2023-12-28T10:37:51;16.10;46.20
50738;DHT22;36703;48.154;17.126;2023-12-28T10:41:58;16.50;47.70
50738;DHT22;36703;48.154;17.126;2023-12-28T10:46:01;16.70;45.30
50738;DHT22;36703;48.154;17.126;2023-12-28T10:50:05;16.80;45.30
50738;DHT22;36703;48.154;17.126;2023-12-28T10:58:19;17.10;45.00
50738;DHT22;36703;48.154;17.126;2023-12-28T11:02:28;17.40;46.80
50738;DHT22;36703;48.154;17.126;2023-12-28T11:06:37;17.50;45.70
50738;DHT22;36703;48.154;17.126;2023-12-28T11:10:41;17.60;45.30
50738;DHT22;36703;48.154;17.126;2023-12-28T11:14:44;17.70;44.50
50738;DHT22;36703;48.154;17.126;2023-12-28T11:18:47;17.80;43.60
50738;DHT22;36703;48.154;17.126;2023-12-28T11:22:49;18.00;42.90
50738;DHT22;36703;48.154;17.126;2023-12-28T11:26:55;18.00;42.40
50738;DHT22;36703;48.154;17.126;2023-12-28T11:30:56;18.10;42.30
50738;DHT22;36703;48.154;17.126;2023-12-28T11:34:58;18.30;42.80
50738;DHT22;36703;48.154;17.126;2023-12-28T11:39:02;18.60;41.90
50738;DHT22;36703;48.154;17.126;2023-12-28T11:43:17;18.90;42.30
50738;DHT22;36703;48.154;17.126;2023-12-28T11:47:25;19.10;41.10
50738;DHT22;36703;48.154;17.126;2023-12-28T11:51:28;19.20;41.40
50738;DHT22;36703;48.154;17.126;2023-12-28T11:55:29;19.10;40.50
50738;DHT22;36703;48.154;17.126;2023-12-28T11:59:32;19.20;40.60
50738;DHT22;36703;48.154;17.126;2023-12-28T12:03:33;19.20;40.50
50738;DHT22;36703;48.154;17.126;2023-12-28T12:07:36;19.10;40.20
50738;DHT22;36703;48.154;17.126;2023-12-28T12:11:37;19.10;40.30
50738;DHT22;36703;48.154;17.126;2023-12-28T12:15:39;19.30;40.30
50738;DHT22;36703;48.154;17.126;2023-12-28T12:19:41;19.60;40.00
50738;DHT22;36703;48.154;17.126;2023-12-28T12:23:42;19.40;39.70
50738;DHT22;36703;48.154;17.126;2023-12-28T12:27:44;19.50;39.80
50738;DHT22;36703;48.154;17.126;2023-12-28T12:31:48;19.50;39.70
50738;DHT22;36703;48.154;17.126;2023-12-28T12:35:49;19.50;39.60
50738;DHT22;36703;48.154;17.126;2023-12-28T12:39:51;19.50;39.60
50738;DHT22;36703;48.154;17.126;2023-12-28T12:43:55;19.80;40.70
50738;DHT22;36703;48.154;17.126;2023-12-28T12:47:58;19.80;39.60
50738;DHT22;36703;48.154;17.126;2023-12-28T12:52:00;19.70;39.30
50738;DHT22;36703;48.154;17.126;2023-12-28T12:56:05;19.60;39.40
50738;DHT22;36703;48.154;17.126;2023-12-28T13:00:09;19.50;39.30
50738;DHT22;36703;48.154;17.126;2023-12-28T13:04:12;19.50;39.30
50738;DHT22;36703;48.154;17.126;2023-12-28T13:08:15;19.50;39.40
50738;DHT22;36703;48.154;17.126;2023-12-28T13:12:17;19.60;39.20
50738;DHT22;36703;48.154;17.126;2023-12-28T13:16:18;19.60;39.10
50738;DHT22;36703;48.154;17.126;2023-12-28T13:20:20;19.70;39.10
50738;DHT22;36703;48.154;17.126;2023-12-28T13:24:21;19.80;38.90
50738;DHT22;36703;48.154;17.126;2023-12-28T13:28:23;19.80;38.80
50738;DHT22;36703;48.154;17.126;2023-12-28T13:32:25;19.80;39.50
50738;DHT22;36703;48.154;17.126;2023-12-28T13:36:26;19.80;38.90
50738;DHT22;36703;48.154;17.126;2023-12-28T13:40:31;19.80;39.00
50738;DHT22;36703;48.154;17.126;2023-12-28T13:44:33;19.70;39.00
50738;DHT22;36703;48.154;17.126;2023-12-28T13:48:36;19.60;39.00
50738;DHT22;36703;48.154;17.126;2023-12-28T13:52:40;19.50;39.20
50738;DHT22;36703;48.154;17.126;2023-12-28T13:56:42;19.50;39.40
50738;DHT22;36703;48.154;17.126;2023-12-28T14:00:46;19.40;39.50
50738;DHT22;36703;48.154;17.126;2023-12-28T14:04:47;19.30;39.50
50738;DHT22;36703;48.154;17.126;2023-12-28T14:08:49;19.30;39.60
50738;DHT22;36703;48.154;17.126;2023-12-28T14:12:50;18.90;39.80
50738;DHT22;36703;48.154;17.126;2023-12-28T14:16:52;18.70;40.20
50738;DHT22;36703;48.154;17.126;2023-12-28T14:20:53;18.60;40.50
50738;DHT22;36703;48.154;17.126;2023-12-28T14:24:55;18.40;40.60
50738;DHT22;36703;48.154;17.126;2023-12-28T14:28:57;18.20;40.90
50738;DHT22;36703;48.154;17.126;2023-12-28T14:33:00;17.90;41.20
50738;DHT22;36703;48.154;17.126;2023-12-28T14:37:02;17.60;41.50
50738;DHT22;36703;48.154;17.126;2023-12-28T14:41:04;17.40;42.00
50738;DHT22;36703;48.154;17.126;2023-12-28T14:45:06;17.10;42.30
50738;DHT22;36703;48.154;17.126;2023-12-28T14:49:08;16.90;42.60
50738;DHT22;36703;48.154;17.126;2023-12-28T14:53:10;16.80;42.80
50738;DHT22;36703;48.154;17.126;2023-12-28T14:57:11;16.60;43.10
50738;DHT22;36703;48.154;17.126;2023-12-28T15:01:17;16.50;43.40
50738;DHT22;36703;48.154;17.126;2023-12-28T15:05:21;16.40;43.70
50738;DHT22;36703;48.154;17.126;2023-12-28T15:09:23;16.10;43.80
50738;DHT22;36703;48.154;17.126;2023-12-28T15:13:24;15.50;44.60
50738;DHT22;36703;48.154;17.126;2023-12-28T15:17:27;15.10;45.50
50738;DHT22;36703;48.154;17.126;2023-12-28T15:21:29;14.70;46.40
50738;DHT22;36703;48.154;17.126;2023-12-28T15:25:30;14.40;46.80
50738;DHT22;36703;48.154;17.126;2023-12-28T15:29:32;14.10;47.30
50738;DHT22;36703;48.154;17.126;2023-12-28T15:33:34;14.00;47.90
50738;DHT22;36703;48.154;17.126;2023-12-28T15:37:36;13.70;48.30
50738;DHT22;36703;48.154;17.126;2023-12-28T15:41:37;13.50;48.70
50738;DHT22;36703;48.154;17.126;2023-12-28T15:45:39;13.50;49.00
50738;DHT22;36703;48.154;17.126;2023-12-28T15:49:41;13.50;49.20
50738;DHT22;36703;48.154;17.126;2023-12-28T15:53:42;13.40;49.20
50738;DHT22;36703;48.154;17.126;2023-12-28T15:57:44;13.20;49.50
50738;DHT22;36703;48.154;17.126;2023-12-28T16:01:45;13.20;49.80
50738;DHT22;36703;48.154;17.126;2023-12-28T16:05:47;13.20;50.10
50738;DHT22;36703;48.154;17.126;2023-12-28T16:09:49;13.30;50.20
50738;DHT22;36703;48.154;17.126;2023-12-28T16:13:50;13.90;50.50
50738;DHT22;36703;48.154;17.126;2023-12-28T16:17:52;13.20;50.20
50738;DHT22;36703;48.154;17.126;2023-12-28T16:21:58;13.10;50.30
50738;DHT22;36703;48.154;17.126;2023-12-28T16:26:00;12.90;50.60
50738;DHT22;36703;48.154;17.126;2023-12-28T16:30:01;12.80;50.90
50738;DHT22;36703;48.154;17.126;2023-12-28T16:34:03;12.60;51.00
50738;DHT22;36703;48.154;17.126;2023-12-28T16:38:05;12.30;51.30
50738;DHT22;36703;48.154;17.126;2023-12-28T16:42:06;12.20;51.90
50738;DHT22;36703;48.154;17.126;2023-12-28T16:46:08;12.30;52.10
50738;DHT22;36703;48.154;17.126;2023-12-28T16:50:10;12.30;52.10
50738;DHT22;36703;48.154;17.126;2023-12-28T16:54:11;12.30;51.90
50738;DHT22;36703;48.154;17.126;2023-12-28T16:58:14;12.30;52.20
50738;DHT22;36703;48.154;17.126;2023-12-28T17:02:16;12.40;52.40
50738;DHT22;36703;48.154;17.126;2023-12-28T17:06:18;12.40;52.40
50738;DHT22;36703;48.154;17.126;2023-12-28T17:10:20;12.10;52.20
50738;DHT22;36703;48.154;17.126;2023-12-28T17:14:22;12.00;52.70
50738;DHT22;36703;48.154;17.126;2023-12-28T17:18:23;12.00;53.10
50738;DHT22;36703;48.154;17.126;2023-12-28T17:22:27;12.00;53.00
50738;DHT22;36703;48.154;17.126;2023-12-28T17:26:39;11.90;53.00
50738;DHT22;36703;48.154;17.126;2023-12-28T17:30:46;11.90;56.70
50738;DHT22;36703;48.154;17.126;2023-12-28T17:34:48;11.80;53.40
50738;DHT22;36703;48.154;17.126;2023-12-28T17:38:50;11.80;53.10
50738;DHT22;36703;48.154;17.126;2023-12-28T17:42:53;11.80;53.60
50738;DHT22;36703;48.154;17.126;2023-12-28T17:47:02;11.90;53.30
50738;DHT22;36703;48.154;17.126;2023-12-28T17:51:08;11.70;53.20
50738;DHT22;36703;48.154;17.126;2023-12-28T17:55:12;11.80;53.20
50738;DHT22;36703;48.154;17.126;2023-12-28T17:59:13;11.90;53.40
50738;DHT22;36703;48.154;17.126;2023-12-28T18:03:15;11.90;53.40
50738;DHT22;36703;48.154;17.126;2023-12-28T18:07:16;12.00;53.40
50738;DHT22;36703;48.154;17.126;2023-12-28T18:11:18;12.00;53.30
50738;DHT22;36703;48.154;17.126;2023-12-28T18:15:19;12.00;53.10
50738;DHT22;36703;48.154;17.126;2023-12-28T18:19:21;12.00;53.20
50738;DHT22;36703;48.154;17.126;2023-12-28T18:23:22;12.00;53.10
50738;DHT22;36703;48.154;17.126;2023-12-28T18:27:24;12.10;53.20
50738;DHT22;36703;48.154;17.126;2023-12-28T18:31:25;12.00;53.20
50738;DHT22;36703;48.154;17.126;2023-12-28T18:35:27;12.00;53.10
50738;DHT22;36703;48.154;17.126;2023-12-28T18:39:28;11.90;53.10
50738;DHT22;36703;48.154;17.126;2023-12-28T18:43:31;11.90;53.00
50738;DHT22;36703;48.154;17.126;2023-12-28T18:47:34;11.90;53.00
50738;DHT22;36703;48.154;17.126;2023-12-28T18:51:36;11.80;53.00
50738;DHT22;36703;48.154;17.126;2023-12-28T18:55:39;11.70;52.90
50738;DHT22;36703;48.154;17.126;2023-12-28T19:03:43;11.60;91.30
50738;DHT22;36703;48.154;17.126;2023-12-28T19:07:45;11.40;52.90
50738;DHT22;36703;48.154;17.126;2023-12-28T19:11:46;11.40;52.90
50738;DHT22;36703;48.154;17.126;2023-12-28T19:15:48;11.30;52.90
50738;DHT22;36703;48.154;17.126;2023-12-28T19:19:49;11.30;52.80
50738;DHT22;36703;48.154;17.126;2023-12-28T19:23:51;11.40;52.80
50738;DHT22;36703;48.154;17.126;2023-12-28T19:27:54;11.30;52.80
50738;DHT22;36703;48.154;17.126;2023-12-28T19:31:56;11.20;52.90
50738;DHT22;36703;48.154;17.126;2023-12-28T19:35:57;11.30;52.80
50738;DHT22;36703;48.154;17.126;2023-12-28T19:39:59;11.10;52.80
50738;DHT22;36703;48.154;17.126;2023-12-28T19:44:01;11.00;52.90
50738;DHT22;36703;48.154;17.126;2023-12-28T19:48:04;11.30;53.40
50738;DHT22;36703;48.154;17.126;2023-12-28T19:52:06;11.00;53.10
50738;DHT22;36703;48.154;17.126;2023-12-28T19:56:08;11.20;53.30
50738;DHT22;36703;48.154;17.126;2023-12-28T20:00:10;11.00;53.20
50738;DHT22;36703;48.154;17.126;2023-12-28T20:04:14;10.90;53.20
50738;DHT22;36703;48.154;17.126;2023-12-28T20:08:16;11.00;53.50
50738;DHT22;36703;48.154;17.126;2023-12-28T20:12:18;10.90;54.00
50738;DHT22;36703;48.154;17.126;2023-12-28T20:16:19;10.80;53.40
50738;DHT22;36703;48.154;17.126;2023-12-28T20:20:21;10.80;53.60
50738;DHT22;36703;48.154;17.126;2023-12-28T20:24:22;10.80;53.70
50738;DHT22;36703;48.154;17.126;2023-12-28T20:28:24;10.90;53.80
50738;DHT22;36703;48.154;17.126;2023-12-28T20:32:25;10.90;53.70
50738;DHT22;36703;48.154;17.126;2023-12-28T20:36:27;10.70;53.70
50738;DHT22;36703;48.154;17.126;2023-12-28T20:40:29;10.60;53.90
50738;DHT22;36703;48.154;17.126;2023-12-28T20:44:31;11.60;54.80
50738;DHT22;36703;48.154;17.126;2023-12-28T20:48:33;11.00;72.00
50738;DHT22;36703;48.154;17.126;2023-12-28T20:52:34;10.60;73.20
50738;DHT22;36703;48.154;17.126;2023-12-28T20:56:36;10.50;73.60
50738;DHT22;36703;48.154;17.126;2023-12-28T21:00:38;10.40;72.10
50738;DHT22;36703;48.154;17.126;2023-12-28T21:04:39;10.80;74.50
50738;DHT22;36703;48.154;17.126;2023-12-28T21:08:41;11.00;74.00
50738;DHT22;36703;48.154;17.126;2023-12-28T21:12:42;10.40;74.10
50738;DHT22;36703;48.154;17.126;2023-12-28T21:16:51;11.00;73.50
50738;DHT22;36703;48.154;17.126;2023-12-28T21:20:53;10.70;73.40
50738;DHT22;36703;48.154;17.126;2023-12-28T21:24:55;10.70;73.40
50738;DHT22;36703;48.154;17.126;2023-12-28T21:28:56;11.10;73.80
50738;DHT22;36703;48.154;17.126;2023-12-28T21:32:58;10.70;73.10
50738;DHT22;36703;48.154;17.126;2023-12-28T21:36:59;10.50;73.30
50738;DHT22;36703;48.154;17.126;2023-12-28T21:41:01;10.80;75.80
50738;DHT22;36703;48.154;17.126;2023-12-28T21:45:02;11.20;77.00
50738;DHT22;36703;48.154;17.126;2023-12-28T21:49:04;10.40;76.60
50738;DHT22;36703;48.154;17.126;2023-12-28T21:53:06;10.50;77.80
50738;DHT22;36703;48.154;17.126;2023-12-28T21:57:08;10.90;81.70
50738;DHT22;36703;48.154;17.126;2023-12-28T22:01:09;10.60;65.60
50738;DHT22;36703;48.154;17.126;2023-12-28T22:05:11;10.80;66.70
50738;DHT22;36703;48.154;17.126;2023-12-28T22:09:12;11.30;67.00
50738;DHT22;36703;48.154;17.126;2023-12-28T22:13:14;10.50;66.10
50738;DHT22;36703;48.154;17.126;2023-12-28T22:17:15;10.60;66.30
50738;DHT22;36703;48.154;17.126;2023-12-28T22:21:17;10.70;66.50
50738;DHT22;36703;48.154;17.126;2023-12-28T22:25:19;10.20;72.60
50738;DHT22;36703;48.154;17.126;2023-12-28T22:29:21;11.00;73.00
50738;DHT22;36703;48.154;17.126;2023-12-28T22:33:23;10.10;56.90
50738;DHT22;36703;48.154;17.126;2023-12-28T22:37:25;10.70;54.70
50738;DHT22;36703;48.154;17.126;2023-12-28T22:41:26;10.10;54.30
50738;DHT22;36703;48.154;17.126;2023-12-28T22:45:28;9.90;54.10
50738;DHT22;36703;48.154;17.126;2023-12-28T22:49:29;10.00;54.00
50738;DHT22;36703;48.154;17.126;2023-12-28T22:53:31;10.70;54.10
50738;DHT22;36703;48.154;17.126;2023-12-28T22:57:32;9.30;53.50
50738;DHT22;36703;48.154;17.126;2023-12-28T23:01:34;9.90;54.00
50738;DHT22;36703;48.154;17.126;2023-12-28T23:05:35;9.70;53.80
50738;DHT22;36703;48.154;17.126;2023-12-28T23:09:37;9.70;53.90
50738;DHT22;36703;48.154;17.126;2023-12-28T23:13:38;9.10;53.50
50738;DHT22;36703;48.154;17.126;2023-12-28T23:17:41;9.50;53.60
50738;DHT22;36703;48.154;17.126;2023-12-28T23:21:42;10.60;54.40
50738;DHT22;36703;48.154;17.126;2023-12-28T23:25:44;10.20;64.60
50738;DHT22;36703;48.154;17.126;2023-12-28T23:29:45;9.40;54.30
50738;DHT22;36703;48.154;17.126;2023-12-28T23:33:47;9.40;54.10
50738;DHT22;36703;48.154;17.126;2023-12-28T23:37:49;9.40;53.90
50738;DHT22;36703;48.154;17.126;2023-12-28T23:41:50;9.40;53.90
50738;DHT22;36703;48.154;17.126;2023-12-28T23:45:52;9.80;54.30
50738;DHT22;36703;48.154;17.126;2023-12-28T23:49:53;9.30;53.90
50738;DHT22;36703;48.154;17.126;2023-12-28T23:53:55;9.40;53.80
50738;DHT22;36703;48.154;17.126;2023-12-28T23:57:56;9.10;53.70
